sensor_id;sensor_type;location;lat;lon;timestamp;P1;durP1;ratioP1;P2;durP2;ratioP2
52898;SDS011;38763;53.096;6.062;2023-04-01T00:00:17;10.57;;;5.82;;
52898;SDS011;38763;53.096;6.062;2023-04-01T00:02:44;10.18;;;5.80;;
52898;SDS011;38763;53.096;6.062;2023-04-01T00:05:10;12.73;;;7.13;;
52898;SDS011;38763;53.096;6.062;2023-04-01T00:07:37;13.43;;;7.10;;
52898;SDS011;38763;53.096;6.062;2023-04-01T00:10:04;11.63;;;6.80;;
52898;SDS011;38763;53.096;6.062;2023-04-01T00:12:31;11.77;;;6.22;;
52898;SDS011;38763;53.096;6.062;2023-04-01T00:14:56;12.18;;;6.60;;
52898;SDS011;38763;53.096;6.062;2023-04-01T00:17:22;18.60;;;8.05;;
52898;SDS011;38763;53.096;6.062;2023-04-01T00:19:48;12.95;;;7.18;;
52898;SDS011;38763;53.096;6.062;2023-04-01T00:22:14;12.48;;;6.68;;
52898;SDS011;38763;53.096;6.062;2023-04-01T00:24:40;13.20;;;7.35;;
52898;SDS011;38763;53.096;6.062;2023-04-01T00:27:06;12.43;;;6.78;;
52898;SDS011;38763;53.096;6.062;2023-04-01T00:29:33;11.95;;;6.88;;
52898;SDS011;38763;53.096;6.062;2023-04-01T00:31:59;11.05;;;6.20;;
52898;SDS011;38763;53.096;6.062;2023-04-01T00:34:25;9.27;;;4.88;;
52898;SDS011;38763;53.096;6.062;2023-04-01T00:36:52;11.55;;;6.50;;
52898;SDS011;38763;53.096;6.062;2023-04-01T00:39:18;12.65;;;6.78;;
52898;SDS011;38763;53.096;6.062;2023-04-01T00:41:45;12.35;;;6.78;;
52898;SDS011;38763;53.096;6.062;2023-04-01T00:44:15;13.38;;;7.20;;
52898;SDS011;38763;53.096;6.062;2023-04-01T00:46:49;12.85;;;6.47;;
52898;SDS011;38763;53.096;6.062;2023-04-01T00:49:15;12.43;;;7.68;;
52898;SDS011;38763;53.096;6.062;2023-04-01T00:51:44;16.77;;;8.07;;
52898;SDS011;38763;53.096;6.062;2023-04-01T00:54:13;15.07;;;7.50;;
52898;SDS011;38763;53.096;6.062;2023-04-01T00:56:54;16.27;;;8.73;;
52898;SDS011;38763;53.096;6.062;2023-04-01T00:59:23;15.65;;;8.20;;
52898;SDS011;38763;53.096;6.062;2023-04-01T01:01:51;15.70;;;8.23;;
52898;SDS011;38763;53.096;6.062;2023-04-01T01:04:24;15.23;;;8.07;;
52898;SDS011;38763;53.096;6.062;2023-04-01T01:15:16;14.65;;;7.95;;
52898;SDS011;38763;53.096;6.062;2023-04-01T01:18:17;14.77;;;8.00;;
52898;SDS011;38763;53.096;6.062;2023-04-01T01:34:15;12.75;;;7.70;;
52898;SDS011;38763;53.096;6.062;2023-04-01T01:37:08;13.38;;;7.18;;
52898;SDS011;38763;53.096;6.062;2023-04-01T01:39:37;16.42;;;7.65;;
52898;SDS011;38763;53.096;6.062;2023-04-01T01:42:06;15.90;;;8.13;;
52898;SDS011;38763;53.096;6.062;2023-04-01T01:44:35;14.95;;;7.70;;
52898;SDS011;38763;53.096;6.062;2023-04-01T01:47:03;14.95;;;8.18;;
52898;SDS011;38763;53.096;6.062;2023-04-01T01:49:28;15.82;;;8.35;;
52898;SDS011;38763;53.096;6.062;2023-04-01T01:51:57;15.65;;;7.78;;
52898;SDS011;38763;53.096;6.062;2023-04-01T01:54:22;15.35;;;7.95;;
52898;SDS011;38763;53.096;6.062;2023-04-01T01:56:49;17.30;;;7.60;;
52898;SDS011;38763;53.096;6.062;2023-04-01T01:59:20;14.93;;;7.35;;
52898;SDS011;38763;53.096;6.062;2023-04-01T02:01:50;15.85;;;8.02;;
52898;SDS011;38763;53.096;6.062;2023-04-01T02:04:19;14.20;;;7.07;;
52898;SDS011;38763;53.096;6.062;2023-04-01T02:06:53;15.27;;;7.53;;
52898;SDS011;38763;53.096;6.062;2023-04-01T02:09:25;15.25;;;7.03;;
52898;SDS011;38763;53.096;6.062;2023-04-01T02:11:52;13.77;;;6.50;;
52898;SDS011;38763;53.096;6.062;2023-04-01T02:14:26;10.27;;;5.60;;
52898;SDS011;38763;53.096;6.062;2023-04-01T02:16:58;10.77;;;4.90;;
52898;SDS011;38763;53.096;6.062;2023-04-01T02:19:31;8.75;;;4.78;;
52898;SDS011;38763;53.096;6.062;2023-04-01T02:22:03;13.07;;;5.10;;
52898;SDS011;38763;53.096;6.062;2023-04-01T02:24:33;9.32;;;4.68;;
52898;SDS011;38763;53.096;6.062;2023-04-01T02:27:01;9.07;;;4.85;;
52898;SDS011;38763;53.096;6.062;2023-04-01T02:29:27;10.05;;;4.40;;
52898;SDS011;38763;53.096;6.062;2023-04-01T02:31:52;8.02;;;3.97;;
52898;SDS011;38763;53.096;6.062;2023-04-01T02:34:20;6.57;;;3.42;;
52898;SDS011;38763;53.096;6.062;2023-04-01T02:36:47;5.78;;;2.95;;
52898;SDS011;38763;53.096;6.062;2023-04-01T02:39:14;5.72;;;2.78;;
52898;SDS011;38763;53.096;6.062;2023-04-01T02:41:40;5.55;;;2.65;;
52898;SDS011;38763;53.096;6.062;2023-04-01T02:44:07;6.38;;;2.75;;
52898;SDS011;38763;53.096;6.062;2023-04-01T02:46:35;5.88;;;2.80;;
52898;SDS011;38763;53.096;6.062;2023-04-01T02:49:01;5.07;;;2.47;;
52898;SDS011;38763;53.096;6.062;2023-04-01T02:51:27;6.13;;;3.10;;
52898;SDS011;38763;53.096;6.062;2023-04-01T02:53:52;6.80;;;3.20;;
52898;SDS011;38763;53.096;6.062;2023-04-01T02:56:18;7.20;;;3.58;;
52898;SDS011;38763;53.096;6.062;2023-04-01T02:58:45;12.00;;;5.40;;
52898;SDS011;38763;53.096;6.062;2023-04-01T03:01:11;12.70;;;6.07;;
52898;SDS011;38763;53.096;6.062;2023-04-01T03:03:37;14.73;;;6.88;;
52898;SDS011;38763;53.096;6.062;2023-04-01T03:06:06;15.07;;;7.63;;
52898;SDS011;38763;53.096;6.062;2023-04-01T03:08:33;17.10;;;8.32;;
52898;SDS011;38763;53.096;6.062;2023-04-01T03:10:58;14.18;;;7.80;;
52898;SDS011;38763;53.096;6.062;2023-04-01T03:13:24;18.42;;;8.98;;
52898;SDS011;38763;53.096;6.062;2023-04-01T03:15:50;16.85;;;8.93;;
52898;SDS011;38763;53.096;6.062;2023-04-01T03:18:16;17.10;;;8.60;;
52898;SDS011;38763;53.096;6.062;2023-04-01T03:20:42;17.20;;;9.02;;
52898;SDS011;38763;53.096;6.062;2023-04-01T03:23:08;16.05;;;8.63;;
52898;SDS011;38763;53.096;6.062;2023-04-01T03:25:33;16.25;;;8.52;;
52898;SDS011;38763;53.096;6.062;2023-04-01T03:27:59;16.30;;;8.30;;
52898;SDS011;38763;53.096;6.062;2023-04-01T03:30:26;17.58;;;9.65;;
52898;SDS011;38763;53.096;6.062;2023-04-01T03:32:52;17.85;;;9.48;;
52898;SDS011;38763;53.096;6.062;2023-04-01T03:35:18;15.93;;;8.40;;
52898;SDS011;38763;53.096;6.062;2023-04-01T03:37:44;17.50;;;8.98;;
52898;SDS011;38763;53.096;6.062;2023-04-01T03:40:09;20.67;;;10.00;;
52898;SDS011;38763;53.096;6.062;2023-04-01T03:42:35;20.70;;;10.05;;
52898;SDS011;38763;53.096;6.062;2023-04-01T03:45:02;19.50;;;9.35;;
52898;SDS011;38763;53.096;6.062;2023-04-01T03:47:28;17.65;;;9.25;;
52898;SDS011;38763;53.096;6.062;2023-04-01T03:49:54;21.52;;;10.18;;
52898;SDS011;38763;53.096;6.062;2023-04-01T03:52:20;19.15;;;9.32;;
52898;SDS011;38763;53.096;6.062;2023-04-01T03:54:46;19.60;;;9.48;;
52898;SDS011;38763;53.096;6.062;2023-04-01T03:57:12;20.73;;;10.13;;
52898;SDS011;38763;53.096;6.062;2023-04-01T03:59:37;23.10;;;10.48;;
52898;SDS011;38763;53.096;6.062;2023-04-01T04:02:03;20.25;;;10.85;;
52898;SDS011;38763;53.096;6.062;2023-04-01T04:04:28;23.50;;;10.80;;
52898;SDS011;38763;53.096;6.062;2023-04-01T04:06:55;22.80;;;9.77;;
52898;SDS011;38763;53.096;6.062;2023-04-01T04:09:21;23.85;;;10.90;;
52898;SDS011;38763;53.096;6.062;2023-04-01T04:11:47;21.50;;;10.23;;
52898;SDS011;38763;53.096;6.062;2023-04-01T04:14:13;22.52;;;10.60;;
52898;SDS011;38763;53.096;6.062;2023-04-01T04:16:39;22.08;;;10.27;;
52898;SDS011;38763;53.096;6.062;2023-04-01T04:19:05;20.60;;;10.05;;
52898;SDS011;38763;53.096;6.062;2023-04-01T04:21:30;21.58;;;10.30;;
52898;SDS011;38763;53.096;6.062;2023-04-01T04:23:56;21.33;;;10.30;;
52898;SDS011;38763;53.096;6.062;2023-04-01T04:26:23;22.00;;;10.95;;
52898;SDS011;38763;53.096;6.062;2023-04-01T04:28:49;21.30;;;10.18;;
52898;SDS011;38763;53.096;6.062;2023-04-01T04:31:21;21.23;;;10.23;;
52898;SDS011;38763;53.096;6.062;2023-04-01T04:33:48;21.85;;;10.48;;
52898;SDS011;38763;53.096;6.062;2023-04-01T04:36:14;19.63;;;10.25;;
52898;SDS011;38763;53.096;6.062;2023-04-01T04:38:40;20.95;;;9.95;;
52898;SDS011;38763;53.096;6.062;2023-04-01T04:41:09;22.90;;;11.00;;
52898;SDS011;38763;53.096;6.062;2023-04-01T04:43:37;21.33;;;10.85;;
52898;SDS011;38763;53.096;6.062;2023-04-01T04:46:04;24.30;;;10.40;;
52898;SDS011;38763;53.096;6.062;2023-04-01T04:48:34;20.85;;;9.90;;
52898;SDS011;38763;53.096;6.062;2023-04-01T04:51:00;24.98;;;11.95;;
52898;SDS011;38763;53.096;6.062;2023-04-01T04:53:26;22.50;;;11.18;;
52898;SDS011;38763;53.096;6.062;2023-04-01T04:55:52;25.38;;;11.68;;
52898;SDS011;38763;53.096;6.062;2023-04-01T04:58:18;23.42;;;11.60;;
52898;SDS011;38763;53.096;6.062;2023-04-01T05:00:44;23.98;;;11.70;;
52898;SDS011;38763;53.096;6.062;2023-04-01T05:03:10;25.83;;;12.70;;
52898;SDS011;38763;53.096;6.062;2023-04-01T05:05:37;27.25;;;11.68;;
52898;SDS011;38763;53.096;6.062;2023-04-01T05:08:03;28.33;;;12.50;;
52898;SDS011;38763;53.096;6.062;2023-04-01T05:10:29;23.38;;;10.55;;
52898;SDS011;38763;53.096;6.062;2023-04-01T05:12:56;30.92;;;13.27;;
52898;SDS011;38763;53.096;6.062;2023-04-01T05:15:23;30.15;;;13.25;;
52898;SDS011;38763;53.096;6.062;2023-04-01T05:17:48;29.83;;;13.10;;
52898;SDS011;38763;53.096;6.062;2023-04-01T05:20:15;26.23;;;12.20;;
52898;SDS011;38763;53.096;6.062;2023-04-01T05:22:42;29.83;;;13.27;;
52898;SDS011;38763;53.096;6.062;2023-04-01T05:25:08;27.67;;;13.07;;
52898;SDS011;38763;53.096;6.062;2023-04-01T05:27:34;32.05;;;12.70;;
52898;SDS011;38763;53.096;6.062;2023-04-01T05:30:00;28.60;;;12.57;;
52898;SDS011;38763;53.096;6.062;2023-04-01T05:32:26;29.52;;;12.52;;
52898;SDS011;38763;53.096;6.062;2023-04-01T05:34:51;34.10;;;13.40;;
52898;SDS011;38763;53.096;6.062;2023-04-01T05:37:18;28.77;;;12.60;;
52898;SDS011;38763;53.096;6.062;2023-04-01T05:39:44;27.73;;;12.27;;
52898;SDS011;38763;53.096;6.062;2023-04-01T05:42:10;25.92;;;11.98;;
52898;SDS011;38763;53.096;6.062;2023-04-01T05:44:35;30.70;;;13.43;;
52898;SDS011;38763;53.096;6.062;2023-04-01T05:47:01;31.25;;;13.48;;
52898;SDS011;38763;53.096;6.062;2023-04-01T05:49:28;27.98;;;11.30;;
52898;SDS011;38763;53.096;6.062;2023-04-01T05:51:54;33.72;;;14.55;;
52898;SDS011;38763;53.096;6.062;2023-04-01T05:54:20;31.52;;;13.82;;
52898;SDS011;38763;53.096;6.062;2023-04-01T05:56:46;30.67;;;13.07;;
52898;SDS011;38763;53.096;6.062;2023-04-01T05:59:12;33.95;;;13.70;;
52898;SDS011;38763;53.096;6.062;2023-04-01T06:01:38;32.50;;;14.70;;
52898;SDS011;38763;53.096;6.062;2023-04-01T06:04:04;36.40;;;15.63;;
52898;SDS011;38763;53.096;6.062;2023-04-01T06:06:30;35.20;;;15.02;;
52898;SDS011;38763;53.096;6.062;2023-04-01T06:08:58;32.67;;;13.95;;
52898;SDS011;38763;53.096;6.062;2023-04-01T06:11:56;35.60;;;14.45;;
52898;SDS011;38763;53.096;6.062;2023-04-01T06:14:37;37.17;;;15.73;;
52898;SDS011;38763;53.096;6.062;2023-04-01T06:36:24;36.30;;;14.88;;
52898;SDS011;38763;53.096;6.062;2023-04-01T06:47:28;32.38;;;12.88;;
52898;SDS011;38763;53.096;6.062;2023-04-01T06:52:44;30.40;;;12.35;;
52898;SDS011;38763;53.096;6.062;2023-04-01T06:58:25;31.85;;;12.10;;
52898;SDS011;38763;53.096;6.062;2023-04-01T07:00:59;33.28;;;13.32;;
52898;SDS011;38763;53.096;6.062;2023-04-01T07:03:32;31.92;;;12.38;;
52898;SDS011;38763;53.096;6.062;2023-04-01T07:06:03;31.13;;;12.40;;
52898;SDS011;38763;53.096;6.062;2023-04-01T07:08:31;27.33;;;11.55;;
52898;SDS011;38763;53.096;6.062;2023-04-01T07:11:02;22.27;;;9.75;;
52898;SDS011;38763;53.096;6.062;2023-04-01T07:13:51;19.83;;;9.27;;
52898;SDS011;38763;53.096;6.062;2023-04-01T07:16:21;23.30;;;9.45;;
52898;SDS011;38763;53.096;6.062;2023-04-01T07:19:11;17.15;;;8.10;;
52898;SDS011;38763;53.096;6.062;2023-04-01T07:22:22;20.02;;;8.63;;
52898;SDS011;38763;53.096;6.062;2023-04-01T07:24:50;18.27;;;7.95;;
52898;SDS011;38763;53.096;6.062;2023-04-01T07:27:18;17.92;;;7.70;;
52898;SDS011;38763;53.096;6.062;2023-04-01T07:29:44;24.40;;;9.57;;
52898;SDS011;38763;53.096;6.062;2023-04-01T07:32:13;21.30;;;9.25;;
52898;SDS011;38763;53.096;6.062;2023-04-01T07:37:30;21.35;;;9.77;;
52898;SDS011;38763;53.096;6.062;2023-04-01T07:45:47;31.65;;;12.95;;
52898;SDS011;38763;53.096;6.062;2023-04-01T07:54:13;32.03;;;12.52;;
52898;SDS011;38763;53.096;6.062;2023-04-01T07:56:53;29.67;;;12.38;;
52898;SDS011;38763;53.096;6.062;2023-04-01T07:59:40;34.17;;;14.75;;
52898;SDS011;38763;53.096;6.062;2023-04-01T08:22:02;32.03;;;15.77;;
52898;SDS011;38763;53.096;6.062;2023-04-01T08:27:09;30.30;;;14.52;;
52898;SDS011;38763;53.096;6.062;2023-04-01T08:29:42;29.92;;;14.27;;
52898;SDS011;38763;53.096;6.062;2023-04-01T08:32:22;26.92;;;13.77;;
52898;SDS011;38763;53.096;6.062;2023-04-01T08:35:07;26.65;;;13.63;;
52898;SDS011;38763;53.096;6.062;2023-04-01T08:37:49;24.67;;;12.88;;
52898;SDS011;38763;53.096;6.062;2023-04-01T08:48:29;21.98;;;11.70;;
52898;SDS011;38763;53.096;6.062;2023-04-01T08:56:47;25.58;;;13.25;;
52898;SDS011;38763;53.096;6.062;2023-04-01T09:11:02;21.75;;;11.45;;
52898;SDS011;38763;53.096;6.062;2023-04-01T09:21:54;19.25;;;10.68;;
52898;SDS011;38763;53.096;6.062;2023-04-01T09:31:08;16.90;;;9.25;;
52898;SDS011;38763;53.096;6.062;2023-04-01T09:44:51;13.32;;;8.07;;
52898;SDS011;38763;53.096;6.062;2023-04-01T09:50:17;15.27;;;9.35;;
52898;SDS011;38763;53.096;6.062;2023-04-01T09:59:19;18.40;;;9.75;;
52898;SDS011;38763;53.096;6.062;2023-04-01T10:07:11;12.07;;;7.10;;
52898;SDS011;38763;53.096;6.062;2023-04-01T10:29:35;10.48;;;5.55;;
52898;SDS011;38763;53.096;6.062;2023-04-01T10:32:14;9.88;;;5.60;;
52898;SDS011;38763;53.096;6.062;2023-04-01T10:54:09;9.23;;;4.72;;
52898;SDS011;38763;53.096;6.062;2023-04-01T11:08:25;9.05;;;5.03;;
52898;SDS011;38763;53.096;6.062;2023-04-01T11:16:55;8.60;;;4.82;;
52898;SDS011;38763;53.096;6.062;2023-04-01T11:24:55;8.55;;;4.00;;
52898;SDS011;38763;53.096;6.062;2023-04-01T11:44:16;6.00;;;2.97;;
52898;SDS011;38763;53.096;6.062;2023-04-01T12:02:55;6.55;;;3.10;;
52898;SDS011;38763;53.096;6.062;2023-04-01T12:05:54;6.03;;;2.60;;
52898;SDS011;38763;53.096;6.062;2023-04-01T12:08:55;5.07;;;2.58;;
52898;SDS011;38763;53.096;6.062;2023-04-01T12:14:05;5.97;;;3.13;;
52898;SDS011;38763;53.096;6.062;2023-04-01T12:16:41;6.43;;;2.80;;
52898;SDS011;38763;53.096;6.062;2023-04-01T12:25:25;4.82;;;2.60;;
52898;SDS011;38763;53.096;6.062;2023-04-01T12:39:44;7.18;;;3.53;;
52898;SDS011;38763;53.096;6.062;2023-04-01T12:41:47;6.13;;;3.15;;
52898;SDS011;38763;53.096;6.062;2023-04-01T12:44:26;6.57;;;2.80;;
52898;SDS011;38763;53.096;6.062;2023-04-01T12:55:49;5.22;;;2.85;;
52898;SDS011;38763;53.096;6.062;2023-04-01T13:06:34;5.45;;;2.97;;
52898;SDS011;38763;53.096;6.062;2023-04-01T13:09:28;6.15;;;3.20;;
52898;SDS011;38763;53.096;6.062;2023-04-01T13:12:19;4.45;;;2.85;;
52898;SDS011;38763;53.096;6.062;2023-04-01T13:14:57;6.03;;;2.72;;
52898;SDS011;38763;53.096;6.062;2023-04-01T13:23:24;5.90;;;3.40;;
52898;SDS011;38763;53.096;6.062;2023-04-01T13:28:50;5.40;;;2.72;;
52898;SDS011;38763;53.096;6.062;2023-04-01T13:31:25;5.97;;;2.80;;
52898;SDS011;38763;53.096;6.062;2023-04-01T13:34:09;6.00;;;2.65;;
52898;SDS011;38763;53.096;6.062;2023-04-01T13:36:49;5.03;;;2.85;;
52898;SDS011;38763;53.096;6.062;2023-04-01T13:53:00;5.22;;;2.55;;
52898;SDS011;38763;53.096;6.062;2023-04-01T14:07:31;4.63;;;2.60;;
52898;SDS011;38763;53.096;6.062;2023-04-01T14:13:16;5.80;;;2.47;;
52898;SDS011;38763;53.096;6.062;2023-04-01T14:24:14;4.85;;;2.60;;
52898;SDS011;38763;53.096;6.062;2023-04-01T14:45:39;3.53;;;2.10;;
52898;SDS011;38763;53.096;6.062;2023-04-01T14:51:16;3.88;;;2.10;;
52898;SDS011;38763;53.096;6.062;2023-04-01T14:54:03;3.33;;;1.75;;
52898;SDS011;38763;53.096;6.062;2023-04-01T14:59:09;4.07;;;2.35;;
52898;SDS011;38763;53.096;6.062;2023-04-01T15:07:42;6.88;;;2.92;;
52898;SDS011;38763;53.096;6.062;2023-04-01T15:19:15;6.18;;;2.03;;
52898;SDS011;38763;53.096;6.062;2023-04-01T15:21:50;5.68;;;2.90;;
52898;SDS011;38763;53.096;6.062;2023-04-01T15:27:29;7.47;;;3.80;;
52898;SDS011;38763;53.096;6.062;2023-04-01T15:32:42;22.02;;;10.73;;
52898;SDS011;38763;53.096;6.062;2023-04-01T15:40:29;6.97;;;3.65;;
52898;SDS011;38763;53.096;6.062;2023-04-01T15:46:09;5.60;;;2.90;;
52898;SDS011;38763;53.096;6.062;2023-04-01T15:51:42;10.52;;;2.90;;
52898;SDS011;38763;53.096;6.062;2023-04-01T16:02:32;8.02;;;3.10;;
52898;SDS011;38763;53.096;6.062;2023-04-01T16:24:45;8.15;;;3.67;;
52898;SDS011;38763;53.096;6.062;2023-04-01T16:27:25;7.70;;;3.30;;
52898;SDS011;38763;53.096;6.062;2023-04-01T16:30:23;5.78;;;3.00;;
52898;SDS011;38763;53.096;6.062;2023-04-01T16:35:57;8.15;;;3.70;;
52898;SDS011;38763;53.096;6.062;2023-04-01T16:41:23;10.75;;;4.65;;
52898;SDS011;38763;53.096;6.062;2023-04-01T16:43:56;8.15;;;4.05;;
52898;SDS011;38763;53.096;6.062;2023-04-01T16:47:27;10.05;;;4.57;;
52898;SDS011;38763;53.096;6.062;2023-04-01T16:52:40;9.98;;;4.60;;
52898;SDS011;38763;53.096;6.062;2023-04-01T16:55:21;8.82;;;4.03;;
52898;SDS011;38763;53.096;6.062;2023-04-01T16:57:50;11.45;;;4.45;;
52898;SDS011;38763;53.096;6.062;2023-04-01T17:00:27;11.93;;;4.47;;
52898;SDS011;38763;53.096;6.062;2023-04-01T17:08:15;12.32;;;4.82;;
52898;SDS011;38763;53.096;6.062;2023-04-01T17:10:52;12.00;;;5.40;;
52898;SDS011;38763;53.096;6.062;2023-04-01T17:16:52;16.70;;;5.57;;
52898;SDS011;38763;53.096;6.062;2023-04-01T17:24:57;12.38;;;5.35;;
52898;SDS011;38763;53.096;6.062;2023-04-01T17:27:40;14.27;;;5.65;;
52898;SDS011;38763;53.096;6.062;2023-04-01T17:33:29;12.30;;;5.97;;
52898;SDS011;38763;53.096;6.062;2023-04-01T17:42:27;13.63;;;5.35;;
52898;SDS011;38763;53.096;6.062;2023-04-01T17:45:11;13.43;;;5.75;;
52898;SDS011;38763;53.096;6.062;2023-04-01T17:53:45;11.82;;;5.13;;
52898;SDS011;38763;53.096;6.062;2023-04-01T17:56:41;10.73;;;4.82;;
52898;SDS011;38763;53.096;6.062;2023-04-01T17:59:16;10.73;;;4.85;;
52898;SDS011;38763;53.096;6.062;2023-04-01T18:10:41;10.90;;;5.30;;
52898;SDS011;38763;53.096;6.062;2023-04-01T18:18:36;13.68;;;6.32;;
52898;SDS011;38763;53.096;6.062;2023-04-01T18:21:52;12.55;;;4.70;;
52898;SDS011;38763;53.096;6.062;2023-04-01T18:24:26;13.95;;;5.85;;
52898;SDS011;38763;53.096;6.062;2023-04-01T18:27:15;15.18;;;6.70;;
52898;SDS011;38763;53.096;6.062;2023-04-01T18:29:50;13.85;;;6.18;;
52898;SDS011;38763;53.096;6.062;2023-04-01T18:40:34;9.88;;;5.32;;
52898;SDS011;38763;53.096;6.062;2023-04-01T18:45:59;16.65;;;6.80;;
52898;SDS011;38763;53.096;6.062;2023-04-01T18:48:40;17.15;;;6.88;;
52898;SDS011;38763;53.096;6.062;2023-04-01T18:56:47;10.65;;;5.07;;
52898;SDS011;38763;53.096;6.062;2023-04-01T18:59:25;12.48;;;5.25;;
52898;SDS011;38763;53.096;6.062;2023-04-01T19:04:38;10.75;;;5.45;;
52898;SDS011;38763;53.096;6.062;2023-04-01T19:10:53;10.80;;;4.95;;
52898;SDS011;38763;53.096;6.062;2023-04-01T19:13:27;15.05;;;6.03;;
52898;SDS011;38763;53.096;6.062;2023-04-01T19:21:42;12.73;;;5.40;;
52898;SDS011;38763;53.096;6.062;2023-04-01T19:24:35;13.63;;;5.40;;
52898;SDS011;38763;53.096;6.062;2023-04-01T19:27:25;11.30;;;4.90;;
52898;SDS011;38763;53.096;6.062;2023-04-01T19:35:26;13.20;;;5.63;;
52898;SDS011;38763;53.096;6.062;2023-04-01T19:43:46;13.50;;;5.63;;
52898;SDS011;38763;53.096;6.062;2023-04-01T19:51:39;9.40;;;4.70;;
52898;SDS011;38763;53.096;6.062;2023-04-01T19:57:17;12.35;;;5.65;;
52898;SDS011;38763;53.096;6.062;2023-04-01T20:13:58;13.52;;;5.25;;
52898;SDS011;38763;53.096;6.062;2023-04-01T20:21:53;15.18;;;5.50;;
52898;SDS011;38763;53.096;6.062;2023-04-01T20:24:45;14.43;;;6.00;;
52898;SDS011;38763;53.096;6.062;2023-04-01T20:32:42;11.88;;;6.10;;
52898;SDS011;38763;53.096;6.062;2023-04-01T20:35:43;13.18;;;4.95;;
52898;SDS011;38763;53.096;6.062;2023-04-01T20:46:48;14.05;;;5.30;;
52898;SDS011;38763;53.096;6.062;2023-04-01T20:52:16;15.35;;;4.82;;
52898;SDS011;38763;53.096;6.062;2023-04-01T20:55:02;12.02;;;4.30;;
52898;SDS011;38763;53.096;6.062;2023-04-01T21:07:53;10.20;;;4.85;;
52898;SDS011;38763;53.096;6.062;2023-04-01T21:10:46;9.02;;;5.10;;
52898;SDS011;38763;53.096;6.062;2023-04-01T21:24:35;13.35;;;4.70;;
52898;SDS011;38763;53.096;6.062;2023-04-01T21:30:00;10.07;;;4.03;;
52898;SDS011;38763;53.096;6.062;2023-04-01T21:32:46;11.32;;;4.40;;
52898;SDS011;38763;53.096;6.062;2023-04-01T21:41:18;9.70;;;3.97;;
52898;SDS011;38763;53.096;6.062;2023-04-01T22:01:26;10.75;;;4.07;;
52898;SDS011;38763;53.096;6.062;2023-04-01T22:06:28;9.27;;;4.20;;
52898;SDS011;38763;53.096;6.062;2023-04-01T22:09:03;7.63;;;3.70;;
52898;SDS011;38763;53.096;6.062;2023-04-01T22:16:58;9.20;;;3.45;;
52898;SDS011;38763;53.096;6.062;2023-04-01T22:22:06;10.02;;;4.25;;
52898;SDS011;38763;53.096;6.062;2023-04-01T22:27:21;11.43;;;4.10;;
52898;SDS011;38763;53.096;6.062;2023-04-01T22:32:54;8.95;;;4.20;;
52898;SDS011;38763;53.096;6.062;2023-04-01T22:35:50;11.18;;;4.35;;
52898;SDS011;38763;53.096;6.062;2023-04-01T22:41:28;10.15;;;4.07;;
52898;SDS011;38763;53.096;6.062;2023-04-01T22:43:58;12.75;;;4.70;;
52898;SDS011;38763;53.096;6.062;2023-04-01T22:55:04;12.30;;;4.40;;
52898;SDS011;38763;53.096;6.062;2023-04-01T22:57:59;13.30;;;4.60;;
52898;SDS011;38763;53.096;6.062;2023-04-01T23:00:45;10.45;;;4.22;;
52898;SDS011;38763;53.096;6.062;2023-04-01T23:16:55;9.95;;;3.70;;
52898;SDS011;38763;53.096;6.062;2023-04-01T23:22:24;8.55;;;3.45;;
52898;SDS011;38763;53.096;6.062;2023-04-01T23:24:58;7.68;;;3.33;;
52898;SDS011;38763;53.096;6.062;2023-04-01T23:31:03;7.72;;;3.03;;
52898;SDS011;38763;53.096;6.062;2023-04-01T23:33:10;11.43;;;3.47;;
52898;SDS011;38763;53.096;6.062;2023-04-01T23:35:47;9.77;;;3.47;;
52898;SDS011;38763;53.096;6.062;2023-04-01T23:38:18;10.32;;;3.28;;
52898;SDS011;38763;53.096;6.062;2023-04-01T23:40:50;7.05;;;3.10;;
52898;SDS011;38763;53.096;6.062;2023-04-01T23:44:19;7.78;;;3.22;;
52898;SDS011;38763;53.096;6.062;2023-04-01T23:46:20;7.13;;;3.15;;
52898;SDS011;38763;53.096;6.062;2023-04-01T23:48:46;8.82;;;3.08;;
52898;SDS011;38763;53.096;6.062;2023-04-01T23:51:20;9.70;;;3.45;;
52898;SDS011;38763;53.096;6.062;2023-04-01T23:54:11;8.13;;;2.58;;
52898;SDS011;38763;53.096;6.062;2023-04-01T23:56:51;7.47;;;3.15;;
52898;SDS011;38763;53.096;6.062;2023-04-01T23:59:29;7.28;;;2.80;;
